sensor_id;sensor_type;location;lat;lon;timestamp;temperature;humidity
45237;DHT22;30973;51.442;3.580;2022-08-01T07:15:13;27.90;96.70
45237;DHT22;30973;51.442;3.580;2022-08-01T07:17:42;28.00;97.00
45237;DHT22;30973;51.442;3.580;2022-08-01T07:20:11;28.60;96.80
45237;DHT22;30973;51.442;3.580;2022-08-01T07:22:42;29.20;95.90
45237;DHT22;30973;51.442;3.580;2022-08-01T07:25:14;29.50;95.20
45237;DHT22;30973;51.442;3.580;2022-08-01T07:27:42;29.80;94.50
45237;DHT22;30973;51.442;3.580;2022-08-01T07:30:09;29.80;92.30
45237;DHT22;30973;51.442;3.580;2022-08-01T07:32:37;29.80;92.80
45237;DHT22;30973;51.442;3.580;2022-08-01T07:35:04;29.60;92.20
45237;DHT22;30973;51.442;3.580;2022-08-01T07:37:32;29.60;92.70
45237;DHT22;30973;51.442;3.580;2022-08-01T07:40:17;29.20;91.80
45237;DHT22;30973;51.442;3.580;2022-08-01T07:42:45;28.60;91.70
45237;DHT22;30973;51.442;3.580;2022-08-01T07:45:13;28.20;91.80
45237;DHT22;30973;51.442;3.580;2022-08-01T07:47:40;27.80;92.10
45237;DHT22;30973;51.442;3.580;2022-08-01T07:50:08;27.50;92.10
45237;DHT22;30973;51.442;3.580;2022-08-01T07:52:36;27.20;92.40
45237;DHT22;30973;51.442;3.580;2022-08-01T07:55:03;26.90;91.90
45237;DHT22;30973;51.442;3.580;2022-08-01T07:57:30;26.80;92.50
45237;DHT22;30973;51.442;3.580;2022-08-01T07:59:58;26.60;92.70
45237;DHT22;30973;51.442;3.580;2022-08-01T08:02:26;26.50;92.90
45237;DHT22;30973;51.442;3.580;2022-08-01T08:04:54;26.30;93.10
45237;DHT22;30973;51.442;3.580;2022-08-01T08:07:21;26.10;93.00
45237;DHT22;30973;51.442;3.580;2022-08-01T08:09:48;25.90;93.50
45237;DHT22;30973;51.442;3.580;2022-08-01T08:12:17;25.80;93.50
45237;DHT22;30973;51.442;3.580;2022-08-01T08:14:55;25.70;93.50
45237;DHT22;30973;51.442;3.580;2022-08-01T08:17:24;25.70;93.70
45237;DHT22;30973;51.442;3.580;2022-08-01T08:19:51;25.60;93.50
45237;DHT22;30973;51.442;3.580;2022-08-01T08:22:18;25.50;93.70
45237;DHT22;30973;51.442;3.580;2022-08-01T08:24:45;25.50;93.70
45237;DHT22;30973;51.442;3.580;2022-08-01T08:27:13;25.50;93.80
45237;DHT22;30973;51.442;3.580;2022-08-01T08:29:41;25.50;94.30
45237;DHT22;30973;51.442;3.580;2022-08-01T08:32:09;25.70;94.50
45237;DHT22;30973;51.442;3.580;2022-08-01T08:34:37;25.80;94.20
45237;DHT22;30973;51.442;3.580;2022-08-01T08:37:04;26.00;94.00
45237;DHT22;30973;51.442;3.580;2022-08-01T08:39:32;25.90;94.00
45237;DHT22;30973;51.442;3.580;2022-08-01T08:42:12;25.80;93.70
45237;DHT22;30973;51.442;3.580;2022-08-01T08:44:41;25.80;94.20
45237;DHT22;30973;51.442;3.580;2022-08-01T08:47:12;25.90;93.80
45237;DHT22;30973;51.442;3.580;2022-08-01T08:49:46;25.90;93.90
45237;DHT22;30973;51.442;3.580;2022-08-01T08:52:17;26.00;93.80
45237;DHT22;30973;51.442;3.580;2022-08-01T08:54:47;26.10;93.70
45237;DHT22;30973;51.442;3.580;2022-08-01T08:57:15;26.00;93.20
45237;DHT22;30973;51.442;3.580;2022-08-01T08:59:43;26.10;93.50
45237;DHT22;30973;51.442;3.580;2022-08-01T09:02:10;26.10;93.40
45237;DHT22;30973;51.442;3.580;2022-08-01T09:04:40;26.10;93.00
45237;DHT22;30973;51.442;3.580;2022-08-01T09:07:07;26.10;93.10
45237;DHT22;30973;51.442;3.580;2022-08-01T09:09:38;26.00;92.50
45237;DHT22;30973;51.442;3.580;2022-08-01T09:12:08;26.20;93.60
45237;DHT22;30973;51.442;3.580;2022-08-01T09:14:44;26.20;93.30
45237;DHT22;30973;51.442;3.580;2022-08-01T09:17:12;26.30;93.20
45237;DHT22;30973;51.442;3.580;2022-08-01T09:19:44;26.40;92.80
45237;DHT22;30973;51.442;3.580;2022-08-01T09:22:14;26.40;93.20
45237;DHT22;30973;51.442;3.580;2022-08-01T09:27:31;26.70;93.10
45237;DHT22;30973;51.442;3.580;2022-08-01T09:30:18;26.80;92.40
45237;DHT22;30973;51.442;3.580;2022-08-01T09:32:57;26.90;92.10
45237;DHT22;30973;51.442;3.580;2022-08-01T09:35:26;27.10;92.20
45237;DHT22;30973;51.442;3.580;2022-08-01T09:38:16;27.10;91.70
45237;DHT22;30973;51.442;3.580;2022-08-01T09:43:18;27.30;92.40
45237;DHT22;30973;51.442;3.580;2022-08-01T09:45:47;27.30;91.30
45237;DHT22;30973;51.442;3.580;2022-08-01T09:48:20;27.30;91.60
45237;DHT22;30973;51.442;3.580;2022-08-01T09:50:55;27.20;91.40
45237;DHT22;30973;51.442;3.580;2022-08-01T09:53:46;27.20;91.00
45237;DHT22;30973;51.442;3.580;2022-08-01T09:56:20;27.20;91.20
45237;DHT22;30973;51.442;3.580;2022-08-01T09:58:59;27.20;91.00
45237;DHT22;30973;51.442;3.580;2022-08-01T10:01:49;27.30;91.50
45237;DHT22;30973;51.442;3.580;2022-08-01T10:04:20;27.20;91.30
45237;DHT22;30973;51.442;3.580;2022-08-01T10:06:49;27.20;91.00
45237;DHT22;30973;51.442;3.580;2022-08-01T10:09:35;27.10;91.00
45237;DHT22;30973;51.442;3.580;2022-08-01T10:12:09;27.10;90.70
45237;DHT22;30973;51.442;3.580;2022-08-01T10:14:43;27.10;90.70
45237;DHT22;30973;51.442;3.580;2022-08-01T10:17:14;27.00;90.30
45237;DHT22;30973;51.442;3.580;2022-08-01T10:19:46;27.10;90.70
45237;DHT22;30973;51.442;3.580;2022-08-01T10:22:18;27.10;90.60
45237;DHT22;30973;51.442;3.580;2022-08-01T10:24:47;27.10;90.70
45237;DHT22;30973;51.442;3.580;2022-08-01T10:27:16;27.10;90.60
45237;DHT22;30973;51.442;3.580;2022-08-01T10:30:05;27.10;90.20
45237;DHT22;30973;51.442;3.580;2022-08-01T10:32:50;27.00;89.00
45237;DHT22;30973;51.442;3.580;2022-08-01T10:35:22;27.00;89.10
45237;DHT22;30973;51.442;3.580;2022-08-01T10:38:09;26.90;90.00
45237;DHT22;30973;51.442;3.580;2022-08-01T10:40:43;26.80;90.30
45237;DHT22;30973;51.442;3.580;2022-08-01T10:43:15;26.80;90.00
45237;DHT22;30973;51.442;3.580;2022-08-01T10:45:49;26.90;90.40
45237;DHT22;30973;51.442;3.580;2022-08-01T10:48:29;26.90;90.60
45237;DHT22;30973;51.442;3.580;2022-08-01T10:51:01;27.00;90.60
45237;DHT22;30973;51.442;3.580;2022-08-01T10:53:29;27.10;90.40
45237;DHT22;30973;51.442;3.580;2022-08-01T10:56:08;27.10;90.50
45237;DHT22;30973;51.442;3.580;2022-08-01T10:58:44;27.20;88.60
45237;DHT22;30973;51.442;3.580;2022-08-01T11:12:12;27.20;89.30
45237;DHT22;30973;51.442;3.580;2022-08-01T11:17:41;27.30;88.60
45237;DHT22;30973;51.442;3.580;2022-08-01T11:20:19;27.30;89.90
45237;DHT22;30973;51.442;3.580;2022-08-01T11:28:33;27.30;89.20
45237;DHT22;30973;51.442;3.580;2022-08-01T11:39:13;27.50;88.40
45237;DHT22;30973;51.442;3.580;2022-08-01T11:41:42;27.50;86.70
45237;DHT22;30973;51.442;3.580;2022-08-01T11:44:13;27.40;87.90
45237;DHT22;30973;51.442;3.580;2022-08-01T11:46:48;27.50;87.80
45237;DHT22;30973;51.442;3.580;2022-08-01T11:54:58;27.50;87.60
45237;DHT22;30973;51.442;3.580;2022-08-01T11:57:30;27.50;87.00
45237;DHT22;30973;51.442;3.580;2022-08-01T12:00:10;27.60;86.00
45237;DHT22;30973;51.442;3.580;2022-08-01T12:02:41;27.60;86.90
45237;DHT22;30973;51.442;3.580;2022-08-01T12:05:16;27.80;87.30
45237;DHT22;30973;51.442;3.580;2022-08-01T12:07:52;27.80;85.00
45237;DHT22;30973;51.442;3.580;2022-08-01T12:10:25;28.00;84.40
45237;DHT22;30973;51.442;3.580;2022-08-01T12:12:59;28.00;83.40
45237;DHT22;30973;51.442;3.580;2022-08-01T12:15:31;27.90;83.30
45237;DHT22;30973;51.442;3.580;2022-08-01T12:18:01;27.90;84.50
45237;DHT22;30973;51.442;3.580;2022-08-01T12:20:34;27.90;85.40
45237;DHT22;30973;51.442;3.580;2022-08-01T12:23:06;28.00;85.40
45237;DHT22;30973;51.442;3.580;2022-08-01T12:25:35;28.10;84.20
45237;DHT22;30973;51.442;3.580;2022-08-01T12:28:07;27.70;82.80
45237;DHT22;30973;51.442;3.580;2022-08-01T12:30:37;27.50;84.60
45237;DHT22;30973;51.442;3.580;2022-08-01T12:33:06;27.60;84.80
45237;DHT22;30973;51.442;3.580;2022-08-01T12:35:35;27.80;81.90
45237;DHT22;30973;51.442;3.580;2022-08-01T12:38:17;27.70;81.60
45237;DHT22;30973;51.442;3.580;2022-08-01T12:40:46;27.90;83.50
45237;DHT22;30973;51.442;3.580;2022-08-01T12:43:22;27.90;82.70
45237;DHT22;30973;51.442;3.580;2022-08-01T12:45:56;28.10;83.70
45237;DHT22;30973;51.442;3.580;2022-08-01T12:48:25;28.30;84.40
45237;DHT22;30973;51.442;3.580;2022-08-01T12:50:53;28.30;83.50
45237;DHT22;30973;51.442;3.580;2022-08-01T12:53:25;28.50;84.20
45237;DHT22;30973;51.442;3.580;2022-08-01T12:56:05;28.60;82.60
45237;DHT22;30973;51.442;3.580;2022-08-01T12:58:33;28.70;81.20
45237;DHT22;30973;51.442;3.580;2022-08-01T13:01:05;28.40;80.20
45237;DHT22;30973;51.442;3.580;2022-08-01T13:03:33;28.30;81.50
45237;DHT22;30973;51.442;3.580;2022-08-01T13:06:01;28.20;82.50
45237;DHT22;30973;51.442;3.580;2022-08-01T13:08:36;28.20;82.60
45237;DHT22;30973;51.442;3.580;2022-08-01T13:11:09;28.20;83.40
45237;DHT22;30973;51.442;3.580;2022-08-01T13:13:50;28.10;79.00
45237;DHT22;30973;51.442;3.580;2022-08-01T13:16:22;27.90;81.40
45237;DHT22;30973;51.442;3.580;2022-08-01T13:19:04;28.10;80.80
45237;DHT22;30973;51.442;3.580;2022-08-01T13:21:34;28.10;81.50
45237;DHT22;30973;51.442;3.580;2022-08-01T13:24:28;28.30;82.00
45237;DHT22;30973;51.442;3.580;2022-08-01T13:27:00;28.40;82.60
45237;DHT22;30973;51.442;3.580;2022-08-01T13:29:38;28.30;80.60
45237;DHT22;30973;51.442;3.580;2022-08-01T13:32:19;28.20;80.70
45237;DHT22;30973;51.442;3.580;2022-08-01T13:35:07;28.00;79.60
45237;DHT22;30973;51.442;3.580;2022-08-01T13:37:40;27.80;79.60
45237;DHT22;30973;51.442;3.580;2022-08-01T13:40:09;27.60;80.30
45237;DHT22;30973;51.442;3.580;2022-08-01T13:42:37;27.40;80.40
45237;DHT22;30973;51.442;3.580;2022-08-01T13:45:05;27.40;80.50
45237;DHT22;30973;51.442;3.580;2022-08-01T13:47:42;27.40;81.40
45237;DHT22;30973;51.442;3.580;2022-08-01T13:50:29;27.40;81.40
45237;DHT22;30973;51.442;3.580;2022-08-01T13:52:57;27.20;78.90
45237;DHT22;30973;51.442;3.580;2022-08-01T13:55:24;27.10;80.90
45237;DHT22;30973;51.442;3.580;2022-08-01T13:57:53;27.10;80.10
45237;DHT22;30973;51.442;3.580;2022-08-01T14:00:21;27.30;81.10
45237;DHT22;30973;51.442;3.580;2022-08-01T14:02:48;27.30;80.80
45237;DHT22;30973;51.442;3.580;2022-08-01T14:05:16;27.40;80.80
45237;DHT22;30973;51.442;3.580;2022-08-01T14:07:43;27.50;82.20
45237;DHT22;30973;51.442;3.580;2022-08-01T14:10:14;27.60;81.10
45237;DHT22;30973;51.442;3.580;2022-08-01T14:12:49;27.80;81.40
45237;DHT22;30973;51.442;3.580;2022-08-01T14:15:17;27.90;81.40
45237;DHT22;30973;51.442;3.580;2022-08-01T14:18:08;28.00;81.80
45237;DHT22;30973;51.442;3.580;2022-08-01T14:20:38;28.10;81.60
45237;DHT22;30973;51.442;3.580;2022-08-01T14:23:05;28.10;79.70
45237;DHT22;30973;51.442;3.580;2022-08-01T14:25:38;28.00;79.40
45237;DHT22;30973;51.442;3.580;2022-08-01T14:28:26;28.00;78.60
45237;DHT22;30973;51.442;3.580;2022-08-01T14:30:56;28.00;79.60
45237;DHT22;30973;51.442;3.580;2022-08-01T14:33:24;27.70;78.20
45237;DHT22;30973;51.442;3.580;2022-08-01T14:35:51;27.70;78.60
45237;DHT22;30973;51.442;3.580;2022-08-01T14:38:38;27.60;79.40
45237;DHT22;30973;51.442;3.580;2022-08-01T14:41:06;27.40;79.20
45237;DHT22;30973;51.442;3.580;2022-08-01T14:43:33;27.30;80.40
45237;DHT22;30973;51.442;3.580;2022-08-01T14:46:01;27.30;80.30
45237;DHT22;30973;51.442;3.580;2022-08-01T14:48:29;27.20;80.80
45237;DHT22;30973;51.442;3.580;2022-08-01T14:50:58;27.20;81.30
45237;DHT22;30973;51.442;3.580;2022-08-01T14:53:27;27.20;81.40
45237;DHT22;30973;51.442;3.580;2022-08-01T14:55:54;27.20;81.20
45237;DHT22;30973;51.442;3.580;2022-08-01T14:58:21;27.20;80.60
45237;DHT22;30973;51.442;3.580;2022-08-01T15:00:49;27.00;80.60
45237;DHT22;30973;51.442;3.580;2022-08-01T15:03:22;26.90;80.60
45237;DHT22;30973;51.442;3.580;2022-08-01T15:05:49;26.80;82.50
45237;DHT22;30973;51.442;3.580;2022-08-01T15:08:17;26.70;83.40
45237;DHT22;30973;51.442;3.580;2022-08-01T15:10:44;26.70;82.50
45237;DHT22;30973;51.442;3.580;2022-08-01T15:13:11;26.60;82.00
45237;DHT22;30973;51.442;3.580;2022-08-01T15:15:38;26.60;82.60
45237;DHT22;30973;51.442;3.580;2022-08-01T15:18:06;26.40;82.90
45237;DHT22;30973;51.442;3.580;2022-08-01T15:20:33;26.40;82.30
45237;DHT22;30973;51.442;3.580;2022-08-01T15:23:00;26.40;83.50
45237;DHT22;30973;51.442;3.580;2022-08-01T15:25:27;26.40;83.20
45237;DHT22;30973;51.442;3.580;2022-08-01T15:28:09;26.50;82.00
45237;DHT22;30973;51.442;3.580;2022-08-01T15:30:36;26.50;80.80
45237;DHT22;30973;51.442;3.580;2022-08-01T15:33:14;26.40;82.30
45237;DHT22;30973;51.442;3.580;2022-08-01T15:35:41;26.50;82.10
45237;DHT22;30973;51.442;3.580;2022-08-01T15:38:09;26.50;80.90
45237;DHT22;30973;51.442;3.580;2022-08-01T15:40:36;26.50;81.80
45237;DHT22;30973;51.442;3.580;2022-08-01T15:43:04;26.50;82.40
45237;DHT22;30973;51.442;3.580;2022-08-01T15:45:32;26.40;81.80
45237;DHT22;30973;51.442;3.580;2022-08-01T15:48:16;26.30;80.60
45237;DHT22;30973;51.442;3.580;2022-08-01T15:50:44;26.30;81.20
45237;DHT22;30973;51.442;3.580;2022-08-01T15:53:11;26.30;81.30
45237;DHT22;30973;51.442;3.580;2022-08-01T15:55:38;26.10;81.70
45237;DHT22;30973;51.442;3.580;2022-08-01T15:58:06;26.10;81.00
45237;DHT22;30973;51.442;3.580;2022-08-01T16:00:35;26.00;80.80
45237;DHT22;30973;51.442;3.580;2022-08-01T16:03:06;26.00;81.60
45237;DHT22;30973;51.442;3.580;2022-08-01T16:05:34;26.00;81.80
45237;DHT22;30973;51.442;3.580;2022-08-01T16:08:12;26.00;82.30
45237;DHT22;30973;51.442;3.580;2022-08-01T16:10:40;25.90;81.60
45237;DHT22;30973;51.442;3.580;2022-08-01T16:13:08;25.80;80.90
45237;DHT22;30973;51.442;3.580;2022-08-01T16:15:41;25.80;81.80
45237;DHT22;30973;51.442;3.580;2022-08-01T16:18:09;25.80;82.90
45237;DHT22;30973;51.442;3.580;2022-08-01T16:20:39;25.80;80.80
45237;DHT22;30973;51.442;3.580;2022-08-01T16:23:14;25.80;80.00
45237;DHT22;30973;51.442;3.580;2022-08-01T16:25:42;25.60;80.50
45237;DHT22;30973;51.442;3.580;2022-08-01T16:28:11;25.70;81.90
45237;DHT22;30973;51.442;3.580;2022-08-01T16:30:38;25.60;81.40
45237;DHT22;30973;51.442;3.580;2022-08-01T16:33:14;25.60;81.40
45237;DHT22;30973;51.442;3.580;2022-08-01T16:36:02;25.60;82.50
45237;DHT22;30973;51.442;3.580;2022-08-01T16:38:29;25.60;82.60
45237;DHT22;30973;51.442;3.580;2022-08-01T16:40:57;25.60;82.60
45237;DHT22;30973;51.442;3.580;2022-08-01T16:43:24;25.60;82.50
45237;DHT22;30973;51.442;3.580;2022-08-01T16:45:51;25.60;83.00
45237;DHT22;30973;51.442;3.580;2022-08-01T16:48:19;25.60;83.20
45237;DHT22;30973;51.442;3.580;2022-08-01T16:50:48;25.60;83.00
45237;DHT22;30973;51.442;3.580;2022-08-01T16:53:20;25.50;81.90
45237;DHT22;30973;51.442;3.580;2022-08-01T16:55:48;25.50;81.80
45237;DHT22;30973;51.442;3.580;2022-08-01T16:58:20;25.50;81.70
45237;DHT22;30973;51.442;3.580;2022-08-01T17:00:55;25.40;82.50
45237;DHT22;30973;51.442;3.580;2022-08-01T17:03:42;25.30;81.40
45237;DHT22;30973;51.442;3.580;2022-08-01T17:06:19;25.30;81.20
45237;DHT22;30973;51.442;3.580;2022-08-01T17:08:48;25.20;81.60
45237;DHT22;30973;51.442;3.580;2022-08-01T17:11:16;25.20;82.10
45237;DHT22;30973;51.442;3.580;2022-08-01T17:13:43;25.20;82.10
45237;DHT22;30973;51.442;3.580;2022-08-01T17:16:11;25.20;82.10
45237;DHT22;30973;51.442;3.580;2022-08-01T17:18:38;25.20;82.50
45237;DHT22;30973;51.442;3.580;2022-08-01T17:21:06;25.10;82.20
45237;DHT22;30973;51.442;3.580;2022-08-01T17:23:33;25.10;81.90
45237;DHT22;30973;51.442;3.580;2022-08-01T17:26:02;25.10;80.30
45237;DHT22;30973;51.442;3.580;2022-08-01T17:28:29;25.10;81.20
45237;DHT22;30973;51.442;3.580;2022-08-01T17:30:56;25.10;80.70
45237;DHT22;30973;51.442;3.580;2022-08-01T17:33:24;25.00;81.20
45237;DHT22;30973;51.442;3.580;2022-08-01T17:36:11;25.00;80.20
45237;DHT22;30973;51.442;3.580;2022-08-01T17:38:38;25.00;80.00
45237;DHT22;30973;51.442;3.580;2022-08-01T17:41:05;24.90;80.10
45237;DHT22;30973;51.442;3.580;2022-08-01T17:43:33;24.80;79.50
45237;DHT22;30973;51.442;3.580;2022-08-01T17:46:00;24.80;79.60
45237;DHT22;30973;51.442;3.580;2022-08-01T17:48:27;24.80;79.30
45237;DHT22;30973;51.442;3.580;2022-08-01T17:50:55;24.80;79.50
45237;DHT22;30973;51.442;3.580;2022-08-01T17:53:23;24.70;79.00
45237;DHT22;30973;51.442;3.580;2022-08-01T17:55:51;24.60;79.70
45237;DHT22;30973;51.442;3.580;2022-08-01T17:58:24;24.60;79.40
45237;DHT22;30973;51.442;3.580;2022-08-01T18:01:13;24.50;80.10
45237;DHT22;30973;51.442;3.580;2022-08-01T18:03:40;24.50;79.50
45237;DHT22;30973;51.442;3.580;2022-08-01T18:06:09;24.40;80.30
45237;DHT22;30973;51.442;3.580;2022-08-01T18:08:39;24.40;80.50
45237;DHT22;30973;51.442;3.580;2022-08-01T18:11:08;24.30;81.20
45237;DHT22;30973;51.442;3.580;2022-08-01T18:13:36;24.30;81.50
45237;DHT22;30973;51.442;3.580;2022-08-01T18:16:08;24.30;81.80
45237;DHT22;30973;51.442;3.580;2022-08-01T18:18:38;24.20;82.00
45237;DHT22;30973;51.442;3.580;2022-08-01T18:21:06;24.20;82.30
45237;DHT22;30973;51.442;3.580;2022-08-01T18:23:34;24.10;82.80
45237;DHT22;30973;51.442;3.580;2022-08-01T18:26:02;24.10;82.80
45237;DHT22;30973;51.442;3.580;2022-08-01T18:28:33;24.10;83.00
45237;DHT22;30973;51.442;3.580;2022-08-01T18:31:12;24.00;83.30
45237;DHT22;30973;51.442;3.580;2022-08-01T18:33:43;24.00;83.20
45237;DHT22;30973;51.442;3.580;2022-08-01T18:36:11;23.90;82.90
45237;DHT22;30973;51.442;3.580;2022-08-01T18:38:58;23.80;82.90
45237;DHT22;30973;51.442;3.580;2022-08-01T18:41:27;23.80;82.20
45237;DHT22;30973;51.442;3.580;2022-08-01T18:43:55;23.80;81.50
45237;DHT22;30973;51.442;3.580;2022-08-01T18:46:34;23.70;81.40
45237;DHT22;30973;51.442;3.580;2022-08-01T18:49:01;23.60;82.20
45237;DHT22;30973;51.442;3.580;2022-08-01T18:51:29;23.50;81.70
45237;DHT22;30973;51.442;3.580;2022-08-01T18:53:56;23.40;81.70
45237;DHT22;30973;51.442;3.580;2022-08-01T18:56:23;23.40;81.70
45237;DHT22;30973;51.442;3.580;2022-08-01T18:58:52;23.30;82.10
45237;DHT22;30973;51.442;3.580;2022-08-01T19:01:20;23.20;82.30
45237;DHT22;30973;51.442;3.580;2022-08-01T19:03:48;23.20;82.10
45237;DHT22;30973;51.442;3.580;2022-08-01T19:06:15;23.10;82.20
45237;DHT22;30973;51.442;3.580;2022-08-01T19:08:43;23.00;82.40
45237;DHT22;30973;51.442;3.580;2022-08-01T19:11:12;23.00;82.70
45237;DHT22;30973;51.442;3.580;2022-08-01T19:13:39;22.90;82.60
45237;DHT22;30973;51.442;3.580;2022-08-01T19:16:06;22.90;82.80
45237;DHT22;30973;51.442;3.580;2022-08-01T19:18:34;22.90;82.80
45237;DHT22;30973;51.442;3.580;2022-08-01T19:21:01;22.80;82.90
45237;DHT22;30973;51.442;3.580;2022-08-01T19:23:30;22.70;83.10
45237;DHT22;30973;51.442;3.580;2022-08-01T19:26:19;22.70;83.00
45237;DHT22;30973;51.442;3.580;2022-08-01T19:28:52;22.70;83.10
45237;DHT22;30973;51.442;3.580;2022-08-01T19:31:24;22.60;83.20
45237;DHT22;30973;51.442;3.580;2022-08-01T19:33:54;22.60;83.00
45237;DHT22;30973;51.442;3.580;2022-08-01T19:36:22;22.60;83.30
45237;DHT22;30973;51.442;3.580;2022-08-01T19:38:49;22.50;83.60
45237;DHT22;30973;51.442;3.580;2022-08-01T19:41:18;22.50;83.70
45237;DHT22;30973;51.442;3.580;2022-08-01T19:43:45;22.40;83.90
45237;DHT22;30973;51.442;3.580;2022-08-01T19:46:14;22.40;84.10
45237;DHT22;30973;51.442;3.580;2022-08-01T19:48:44;22.30;84.60
45237;DHT22;30973;51.442;3.580;2022-08-01T19:51:20;22.20;85.00
45237;DHT22;30973;51.442;3.580;2022-08-01T19:54:03;22.20;85.50
45237;DHT22;30973;51.442;3.580;2022-08-01T19:56:40;22.10;85.60
45237;DHT22;30973;51.442;3.580;2022-08-01T19:59:18;22.00;85.70
45237;DHT22;30973;51.442;3.580;2022-08-01T20:01:47;22.00;85.90
45237;DHT22;30973;51.442;3.580;2022-08-01T20:04:15;21.90;85.50
45237;DHT22;30973;51.442;3.580;2022-08-01T20:06:44;21.90;85.50
45237;DHT22;30973;51.442;3.580;2022-08-01T20:09:12;21.80;85.50
45237;DHT22;30973;51.442;3.580;2022-08-01T20:11:58;21.80;85.70
45237;DHT22;30973;51.442;3.580;2022-08-01T20:14:26;21.70;85.50
45237;DHT22;30973;51.442;3.580;2022-08-01T20:16:54;21.60;86.10
45237;DHT22;30973;51.442;3.580;2022-08-01T20:19:24;21.50;86.10
45237;DHT22;30973;51.442;3.580;2022-08-01T20:21:59;21.50;86.10
45237;DHT22;30973;51.442;3.580;2022-08-01T20:24:41;21.40;86.10
